Time;durP1;ratioP1;P1;durP2;ratioP2;P2;SDS_P1;SDS_P2;PMS_P1;PMS_P2;Temp;Humidity;BMP_temperature;BMP_pressure;BME280_temperature;BME280_humidity;BME280_pressure;Samples;Min_cycle;Max_cycle;Signal;HPM_P1;HPM_P2
2022/12/26 00:02:07;;;;;;;5.85;2.88;;;-1.70;89.80;;;;;;5075691;28;20497;-79
2022/12/26 00:04:52;;;;;;;4.85;2.28;;;-1.70;90.00;;;;;;5098755;28;20036;-80
2022/12/26 00:07:18;;;;;;;4.93;2.10;;;-1.70;90.00;;;;;;5083593;28;20031;-80
2022/12/26 00:09:44;;;;;;;5.35;2.40;;;-1.70;90.10;;;;;;5093527;28;20466;-82
2022/12/26 00:12:28;;;;;;;5.28;2.10;;;-1.70;90.10;;;;;;5114518;28;20034;-82
2022/12/26 00:15:32;;;;;;;5.18;2.22;;;-1.70;89.80;;;;;;5112175;28;20068;-81
2022/12/26 00:17:58;;;;;;;4.57;2.40;;;-1.70;90.10;;;;;;5088005;28;20442;-80
2022/12/26 00:20:24;;;;;;;2.70;2.42;;;-1.70;90.20;;;;;;5108083;28;20020;-80
2022/12/26 00:22:49;;;;;;;4.75;1.95;;;-1.60;90.20;;;;;;5077996;28;20028;-80
2022/12/26 00:25:34;;;;;;;9.82;2.83;;;-1.70;90.20;;;;;;5116188;28;20396;-79
2022/12/26 00:28:19;;;;;;;9.02;1.95;;;-1.60;90.10;;;;;;5115520;28;20035;-81
2022/12/26 00:30:44;;;;;;;2.75;1.73;;;-1.60;90.10;;;;;;5112827;28;20023;-81
2022/12/26 00:33:29;;;;;;;2.35;2.00;;;-1.70;90.10;;;;;;5103250;28;20031;-81
2022/12/26 00:36:18;;;;;;;3.35;2.00;;;-1.70;90.20;;;;;;5078577;28;20038;-81
2022/12/26 00:38:45;;;;;;;2.42;1.88;;;-1.70;90.10;;;;;;5090490;28;20028;-80
2022/12/26 00:41:29;;;;;;;1.63;1.23;;;-1.70;90.00;;;;;;5096559;28;20035;-80
2022/12/26 00:44:14;;;;;;;6.40;2.30;;;-1.70;90.00;;;;;;5084822;28;20101;-81
2022/12/26 00:47:02;;;;;;;4.20;2.28;;;-1.70;90.10;;;;;;5108622;28;20040;-80
2022/12/26 00:49:46;;;;;;;3.75;1.60;;;-1.70;90.30;;;;;;5089213;28;20047;-80
2022/12/26 00:52:12;;;;;;;3.47;1.70;;;-1.70;90.20;;;;;;5114805;28;20028;-80
2022/12/26 00:55:15;;;;;;;4.68;2.10;;;-1.80;90.20;;;;;;5113113;28;20031;-81
2022/12/26 00:58:00;;;;;;;4.38;2.10;;;-1.80;90.30;;;;;;5092549;28;20396;-80
2022/12/26 01:00:26;;;;;;;2.20;1.55;;;-1.80;90.70;;;;;;5101951;28;20114;-79
2022/12/26 01:03:11;;;;;;;3.35;2.15;;;-1.90;90.20;;;;;;5111758;28;20058;-81
2022/12/26 01:05:59;;;;;;;3.80;1.58;;;-1.90;90.30;;;;;;5102590;28;20047;-80
2022/12/26 01:09:03;;;;;;;2.65;1.77;;;-2.00;90.30;;;;;;5094764;28;20031;-80
2022/12/26 01:11:47;;;;;;;5.63;2.92;;;-2.00;90.30;;;;;;5111577;28;20035;-79
2022/12/26 01:14:50;;;;;;;2.35;1.70;;;-2.00;90.30;;;;;;5094790;28;20038;-80
2022/12/26 01:17:16;;;;;;;3.17;1.80;;;-2.00;90.40;;;;;;5111601;28;20016;-80
2022/12/26 01:19:42;;;;;;;2.22;1.52;;;-2.00;90.30;;;;;;5081432;28;20038;-81
2022/12/26 01:22:26;;;;;;;2.58;1.52;;;-2.10;90.30;;;;;;5109920;28;20437;-79
2022/12/26 01:24:56;;;;;;;4.18;1.75;;;-2.10;90.50;;;;;;5096897;28;20043;-80
2022/12/26 01:27:41;;;;;;;2.50;1.58;;;-2.10;90.60;;;;;;5108602;28;20098;-80
2022/12/26 01:30:25;;;;;;;4.18;1.65;;;-2.00;90.60;;;;;;5105935;28;20538;-81
2022/12/26 01:32:51;;;;;;;4.10;1.70;;;-2.00;90.50;;;;;;5094490;28;20370;-80
2022/12/26 01:35:36;;;;;;;2.28;1.63;;;-2.00;90.40;;;;;;5104724;28;20016;-81
2022/12/26 01:38:02;;;;;;;1.30;1.20;;;-2.00;90.50;;;;;;5086227;28;20023;-80
2022/12/26 01:40:28;;;;;;;4.47;1.75;;;-1.90;90.50;;;;;;5107257;28;20028;-82
2022/12/26 01:42:53;;;;;;;1.85;1.33;;;-1.90;90.40;;;;;;5083203;28;20077;-80
2022/12/26 01:45:30;;;;;;;5.10;1.77;;;-1.90;90.40;;;;;;5074727;28;20024;-81
2022/12/26 01:48:33;;;;;;;2.85;1.60;;;-1.90;90.50;;;;;;5103940;28;20031;-81
2022/12/26 01:51:20;;;;;;;2.88;1.48;;;-1.80;90.50;;;;;;5110546;28;20036;-81
2022/12/26 01:53:47;;;;;;;;;;;-1.80;90.40;;;;;;5122561;28;20016;-80
2022/12/26 01:56:37;;;;;;;1.70;1.38;;;-1.90;90.50;;;;;;5116609;28;19964;-80
2022/12/26 01:59:09;;;;;;;3.00;1.70;;;-1.80;90.40;;;;;;5095285;28;20076;-80
2022/12/26 02:01:56;;;;;;;2.75;1.23;;;-1.80;90.40;;;;;;5126974;28;20052;-79
2022/12/26 02:07:30;;;;;;;1.95;1.27;;;-1.80;90.30;;;;;;5111523;28;20169;-81
2022/12/26 02:09:56;;;;;;;2.70;1.75;;;-1.80;90.30;;;;;;5112993;28;20119;-80
2022/12/26 02:12:30;;;;;;;2.33;1.38;;;-1.90;90.30;;;;;;5110480;28;20435;-79
2022/12/26 02:15:16;;;;;;;3.85;1.65;;;-1.80;90.30;;;;;;5081626;28;20584;-81
2022/12/26 02:18:00;;;;;;;4.28;1.83;;;-1.80;90.20;;;;;;5078442;28;20024;-80
2022/12/26 02:20:38;;;;;;;2.30;1.50;;;-1.80;90.30;;;;;;5093857;28;20047;-79
2022/12/26 02:23:25;;;;;;;5.03;1.88;;;-1.90;90.20;;;;;;5097764;28;20019;-81
2022/12/26 02:26:06;;;;;;;2.83;1.67;;;-1.80;90.20;;;;;;5111304;28;20050;-80
2022/12/26 02:29:05;;;;;;;2.05;1.58;;;-1.80;90.30;;;;;;5111761;28;20020;-80
2022/12/26 02:32:08;;;;;;;2.72;1.98;;;-1.80;90.20;;;;;;5081949;28;20039;-81
2022/12/26 02:35:11;;;;;;;3.47;1.98;;;-1.80;90.10;;;;;;5129088;28;20035;-81
2022/12/26 02:38:25;;;;;;;2.97;2.00;;;-1.80;90.20;;;;;;5111876;28;20019;-81
2022/12/26 02:41:23;;;;;;;3.47;1.40;;;-1.80;90.30;;;;;;5089143;28;20038;-81
2022/12/26 02:43:59;;;;;;;2.78;1.42;;;-1.80;90.00;;;;;;5101851;28;20106;-80
2022/12/26 03:15:08;;;;;;;3.60;1.65;;;-1.90;90.30;;;;;;5103176;28;20031;-81
2022/12/26 03:18:01;;;;;;;2.80;1.70;;;-2.00;90.50;;;;;;5092816;28;20070;-80
2022/12/26 03:20:37;;;;;;;4.38;1.95;;;-2.00;90.50;;;;;;5096839;28;20134;-82
2022/12/26 03:23:14;;;;;;;1.58;1.48;;;-2.00;90.40;;;;;;5066799;28;20019;-80
2022/12/26 03:28:47;;;;;;;6.03;2.72;;;-2.00;90.40;;;;;;5096973;28;20063;-80
2022/12/26 03:31:50;;;;;;;3.47;1.30;;;-2.10;90.10;;;;;;5100262;28;20107;-80
2022/12/26 03:34:35;;;;;;;6.22;2.88;;;-2.10;90.40;;;;;;5105497;28;20081;-80
2022/12/26 03:37:25;;;;;;;5.53;2.60;;;-2.20;90.50;;;;;;5101065;28;20056;-80
2022/12/26 04:20:23;;;;;;;1.98;1.27;;;-2.10;91.00;;;;;;5096285;28;20139;-81
2022/12/26 04:44:13;;;;;;;4.20;2.53;;;-1.90;90.70;;;;;;5091199;28;20078;-84
2022/12/26 04:46:42;;;;;;;5.38;2.58;;;-1.90;90.80;;;;;;5084872;28;20039;-80
2022/12/26 04:52:00;;;;;;;5.18;2.38;;;-1.90;90.90;;;;;;5099166;28;20043;-81
2022/12/26 04:54:26;;;;;;;3.30;2.88;;;-1.90;90.80;;;;;;5095914;28;20024;-82
2022/12/26 04:56:52;;;;;;;4.47;2.63;;;-1.90;90.80;;;;;;5094802;28;20026;-83
2022/12/26 04:59:19;;;;;;;7.05;2.67;;;-1.90;90.90;;;;;;5094949;28;20054;-81
2022/12/26 05:10:09;;;;;;;8.93;3.33;;;-2.00;90.50;;;;;;5091142;28;20087;-81
2022/12/26 05:12:34;;;;;;;3.10;2.65;;;-2.10;90.80;;;;;;5094341;28;20043;-82
2022/12/26 05:15:00;;;;;;;4.90;2.47;;;-2.10;91.00;;;;;;5090109;28;20492;-82
2022/12/26 05:28:42;;;;;;;4.40;2.70;;;-2.10;90.70;;;;;;5102332;28;20050;-81
2022/12/26 05:31:15;;;;;;;5.28;2.95;;;-2.10;90.70;;;;;;5091593;28;20035;-81
2022/12/26 05:36:32;;;;;;;5.32;2.90;;;-2.10;90.70;;;;;;5112690;28;20452;-79
2022/12/26 05:38:58;;;;;;;6.38;2.88;;;-2.10;90.80;;;;;;5102685;28;20586;-83
2022/12/26 05:41:24;;;;;;;5.22;2.75;;;-2.00;90.90;;;;;;5093816;28;20032;-82
2022/12/26 05:43:50;;;;;;;3.97;2.80;;;-2.00;90.90;;;;;;5087078;28;20023;-82
2022/12/26 05:46:16;;;;;;;4.70;2.88;;;-2.10;90.80;;;;;;5086973;28;20473;-81
2022/12/26 05:48:42;;;;;;;4.47;3.15;;;-2.10;90.80;;;;;;5099651;28;20171;-82
2022/12/26 05:51:07;;;;;;;7.90;2.72;;;-2.20;90.60;;;;;;5103597;28;20392;-82
2022/12/26 05:53:36;;;;;;;6.38;3.38;;;-2.20;90.40;;;;;;5114330;28;20023;-82
2022/12/26 05:56:09;;;;;;;5.53;3.55;;;-2.30;90.50;;;;;;5086129;28;20431;-82
2022/12/26 05:58:34;;;;;;;4.90;3.08;;;-2.30;90.70;;;;;;5101345;28;20023;-81
2022/12/26 06:01:19;;;;;;;6.22;5.28;;;-2.30;90.80;;;;;;5097468;28;20103;-82
2022/12/26 06:03:47;;;;;;;5.75;3.13;;;-2.30;90.90;;;;;;5100863;28;20015;-83
2022/12/26 06:06:14;;;;;;;5.53;3.95;;;-2.30;90.90;;;;;;5101067;28;20079;-82
2022/12/26 06:08:40;;;;;;;3.50;3.00;;;-2.30;91.00;;;;;;5112804;28;20499;-82
2022/12/26 06:11:08;;;;;;;5.63;3.67;;;-2.20;90.90;;;;;;5098276;28;20388;-82
2022/12/26 06:13:34;;;;;;;4.68;3.28;;;-2.20;90.80;;;;;;5098507;28;20024;-82
2022/12/26 06:16:12;;;;;;;6.57;4.15;;;-2.20;90.90;;;;;;5065799;28;20094;-83
2022/12/26 06:18:38;;;;;;;5.75;4.68;;;-2.20;91.00;;;;;;5095734;28;20024;-83
2022/12/26 06:21:15;;;;;;;8.53;3.97;;;-2.20;91.00;;;;;;5082305;28;20481;-82
2022/12/26 06:23:42;;;;;;;6.35;4.70;;;-2.10;91.00;;;;;;5091241;28;20020;-82
2022/12/26 06:26:09;;;;;;;3.95;3.28;;;-2.10;91.00;;;;;;5079567;28;20032;-82
2022/12/26 06:28:35;;;;;;;7.65;3.83;;;-2.00;91.00;;;;;;5079338;28;20489;-83
2022/12/26 06:31:13;;;;;;;5.10;3.55;;;-2.00;90.90;;;;;;5085829;28;20037;-81
2022/12/26 06:33:39;;;;;;;7.15;4.03;;;-2.10;90.80;;;;;;5075100;28;20545;-81
2022/12/26 06:36:08;;;;;;;5.97;4.03;;;-2.00;90.90;;;;;;5073407;28;20106;-82
2022/12/26 06:38:35;;;;;;;7.13;4.03;;;-2.00;90.80;;;;;;5073146;28;20030;-81
2022/12/26 06:41:04;;;;;;;6.05;3.95;;;-2.00;90.80;;;;;;5080773;28;20021;-80
2022/12/26 06:43:30;;;;;;;8.70;4.30;;;-2.00;90.90;;;;;;5055869;28;20104;-82
2022/12/26 06:46:00;;;;;;;7.10;3.38;;;-2.00;90.90;;;;;;5061383;28;20088;-81
2022/12/26 06:48:26;;;;;;;7.75;3.55;;;-2.00;90.80;;;;;;5054798;28;20038;-80
2022/12/26 06:50:53;;;;;;;6.30;4.03;;;-2.00;90.80;;;;;;5055119;28;20493;-81
2022/12/26 06:53:23;;;;;;;5.82;3.38;;;-2.00;90.70;;;;;;5072761;28;20100;-81
2022/12/26 06:55:50;;;;;;;8.80;4.88;;;-2.00;90.70;;;;;;5072107;28;20027;-82
2022/12/26 06:58:16;;;;;;;4.00;3.57;;;-2.00;90.60;;;;;;5072062;28;20547;-82
2022/12/26 07:00:42;;;;;;;6.25;3.95;;;-1.90;90.70;;;;;;5055085;28;20070;-82
2022/12/26 07:03:09;;;;;;;5.57;3.78;;;-1.90;90.90;;;;;;5071748;28;20064;-82
2022/12/26 07:05:37;;;;;;;20.73;9.27;;;-1.80;90.90;;;;;;5056973;28;20028;-83
2022/12/26 07:08:03;;;;;;;7.90;4.82;;;-1.70;90.90;;;;;;5071242;28;20103;-82
2022/12/26 07:10:28;;;;;;;6.18;3.60;;;-1.60;91.00;;;;;;5071667;28;20131;-82
2022/12/26 07:12:56;;;;;;;7.22;4.30;;;-1.50;90.90;;;;;;5050531;28;20413;-82
2022/12/26 07:15:22;;;;;;;5.38;4.45;;;-1.50;90.90;;;;;;5069384;28;20043;-84
2022/12/26 07:17:48;;;;;;;5.78;4.45;;;-1.40;90.90;;;;;;5053677;28;20020;-83
2022/12/26 07:20:14;;;;;;;7.97;4.55;;;-1.30;90.80;;;;;;5046457;28;20035;-83
2022/12/26 07:22:40;;;;;;;5.47;4.10;;;-1.30;90.60;;;;;;5072670;28;20019;-86
2022/12/26 07:25:09;;;;;;;4.43;4.00;;;-1.30;90.40;;;;;;5078334;28;20067;-86
2022/12/26 07:27:38;;;;;;;9.35;4.82;;;-1.30;90.40;;;;;;5078763;28;20358;-86
2022/12/26 07:30:04;;;;;;;9.02;3.72;;;-1.30;90.40;;;;;;5084680;28;20028;-86
2022/12/26 07:32:30;;;;;;;6.85;4.30;;;-1.30;90.20;;;;;;5085213;28;20427;-87
2022/12/26 07:34:59;;;;;;;6.32;4.30;;;-1.30;90.30;;;;;;5083749;28;20052;-87
2022/12/26 07:37:24;;;;;;;13.02;4.40;;;-1.30;90.40;;;;;;5059662;28;20116;-87
2022/12/26 07:39:53;;;;;;;8.38;4.43;;;-1.40;90.20;;;;;;5070191;28;20048;-85
2022/12/26 07:42:19;;;;;;;4.85;4.15;;;-1.60;90.30;;;;;;5074017;28;20025;-91
2022/12/26 07:44:45;;;;;;;4.37;3.97;;;-1.70;90.60;;;;;;5062136;28;20723;-89
2022/12/26 07:47:11;;;;;;;4.70;3.92;;;-1.80;90.40;;;;;;5073946;28;20059;-85
2022/12/26 07:49:37;;;;;;;6.30;3.95;;;-1.80;90.50;;;;;;5089000;28;20094;-87
2022/12/26 07:52:03;;;;;;;11.27;4.00;;;-1.90;90.60;;;;;;5074174;28;20020;-83
2022/12/26 07:54:31;;;;;;;7.18;4.68;;;-1.80;90.60;;;;;;5073971;28;20419;-84
2022/12/26 07:56:56;;;;;;;5.78;4.13;;;-1.90;90.50;;;;;;5055997;28;20029;-86
2022/12/26 07:59:22;;;;;;;5.85;4.28;;;-1.90;90.70;;;;;;5072023;28;20027;-86
2022/12/26 08:01:48;;;;;;;13.70;4.53;;;-1.90;91.00;;;;;;5075343;28;20016;-90
2022/12/26 08:04:14;;;;;;;6.82;4.43;;;-1.80;90.90;;;;;;5074913;28;20028;-87
2022/12/26 08:06:40;;;;;;;6.85;5.15;;;-1.80;91.00;;;;;;5093283;28;20024;-89
2022/12/26 08:09:06;;;;;;;7.28;4.32;;;-1.80;90.90;;;;;;5088814;28;20032;-91
2022/12/26 08:11:34;;;;;;;4.88;3.42;;;-1.70;91.00;;;;;;5077754;28;20044;-90
2022/12/26 08:14:00;;;;;;;6.35;4.70;;;-1.80;91.00;;;;;;5053838;28;20107;-91
2022/12/26 08:16:26;;;;;;;5.32;4.15;;;-1.80;91.10;;;;;;5072358;28;20035;-91
2022/12/26 08:18:52;;;;;;;9.50;5.53;;;-2.00;91.30;;;;;;5067422;28;20051;-89
2022/12/26 08:21:18;;;;;;;5.10;3.88;;;-1.90;91.50;;;;;;5056938;28;20029;-93
2022/12/26 08:23:46;;;;;;;6.40;4.05;;;-1.90;91.60;;;;;;5092422;28;20326;-91
2022/12/26 08:26:22;;;;;;;9.93;6.05;;;-1.90;91.50;;;;;;5067233;28;20024;-91
2022/12/26 08:28:50;;;;;;;6.63;4.70;;;-1.90;91.50;;;;;;5085101;28;20029;-90
2022/12/26 08:31:17;;;;;;;3.78;3.47;;;-1.80;91.60;;;;;;5076627;28;20029;-91
2022/12/26 08:33:45;;;;;;;5.75;3.85;;;-1.80;91.40;;;;;;5087669;28;20028;-88
2022/12/26 08:36:12;;;;;;;5.45;4.45;;;-1.80;91.30;;;;;;5075073;28;20040;-89
2022/12/26 08:38:39;;;;;;;8.32;5.70;;;-1.70;91.40;;;;;;5058751;28;20043;-90
2022/12/26 08:41:05;;;;;;;8.77;4.82;;;-1.70;91.30;;;;;;5081381;28;20466;-90
2022/12/26 08:43:31;;;;;;;8.75;5.10;;;-1.60;91.30;;;;;;5072710;28;20108;-87
2022/12/26 08:46:09;;;;;;;6.45;4.22;;;-1.50;91.10;;;;;;5073431;28;20024;-89
2022/12/26 08:48:36;;;;;;;10.88;7.25;;;-1.50;91.00;;;;;;5080427;28;20029;-89
2022/12/26 08:51:05;;;;;;;6.60;5.68;;;-1.40;91.00;;;;;;5091769;28;20501;-91
2022/12/26 08:53:34;;;;;;;14.25;5.50;;;-1.40;90.80;;;;;;5068150;28;20062;-90
2022/12/26 08:56:01;;;;;;;8.88;6.03;;;-1.30;90.80;;;;;;5084884;28;20111;-91
2022/12/26 08:58:28;;;;;;;9.43;5.60;;;-1.30;90.60;;;;;;5061706;28;20044;-90
2022/12/26 09:01:09;;;;;;;6.05;4.53;;;-1.30;90.50;;;;;;5085195;28;20159;-90
2022/12/26 09:03:35;;;;;;;7.22;5.75;;;-1.30;90.30;;;;;;5090625;28;20050;-91
2022/12/26 09:06:01;;;;;;;8.50;5.95;;;-1.30;90.10;;;;;;5096296;28;20054;-92
2022/12/26 09:08:33;;;;;;;9.07;5.72;;;-1.50;89.40;;;;;;5085890;28;20035;-91
2022/12/26 09:11:08;;;;;;;8.75;6.00;;;-1.60;89.80;;;;;;5058780;28;20039;-89
2022/12/26 09:13:34;;;;;;;8.98;5.65;;;-1.70;90.00;;;;;;5096572;28;20020;-88
2022/12/26 09:16:18;;;;;;;6.80;5.45;;;-1.80;90.10;;;;;;5094965;28;20032;-89
2022/12/26 09:18:46;;;;;;;9.18;6.75;;;-1.80;90.40;;;;;;5108962;28;20028;-88
2022/12/26 09:21:14;;;;;;;11.85;6.38;;;-1.70;90.60;;;;;;5077561;28;20077;-90
2022/12/26 09:23:39;;;;;;;;;;;-1.70;90.60;;;;;;5079481;28;20063;-91
2022/12/26 09:26:11;;;;;;;10.88;7.15;;;-1.70;90.70;;;;;;5116672;28;19916;-89
2022/12/26 09:28:37;;;;;;;8.32;6.15;;;-1.60;90.70;;;;;;5087942;28;20054;-89
2022/12/26 09:31:09;;;;;;;10.75;7.20;;;-1.60;90.50;;;;;;5092975;28;20063;-90
2022/12/26 09:33:38;;;;;;;9.63;6.05;;;-1.80;90.40;;;;;;5098057;28;20023;-91
2022/12/26 09:36:06;;;;;;;7.60;5.53;;;-1.90;90.20;;;;;;5109841;28;20020;-90
2022/12/26 09:38:33;;;;;;;9.93;6.53;;;-2.00;90.50;;;;;;5110647;28;20041;-88
2022/12/26 09:41:17;;;;;;;10.55;7.25;;;-2.10;90.50;;;;;;5092135;28;20020;-89
2022/12/26 09:43:49;;;;;;;8.75;6.65;;;-2.00;90.70;;;;;;5090676;28;20024;-90
2022/12/26 09:46:38;;;;;;;14.13;7.57;;;-2.00;90.90;;;;;;5114439;28;20015;-90
2022/12/26 09:49:08;;;;;;;13.68;6.63;;;-1.90;91.20;;;;;;5082215;28;20020;-89
2022/12/26 09:51:35;;;;;;;7.32;6.05;;;-1.90;90.70;;;;;;5110616;28;20034;-89
2022/12/26 09:54:04;;;;;;;7.95;6.45;;;-1.90;90.60;;;;;;5101631;28;20034;-89
2022/12/26 09:56:35;;;;;;;8.88;6.93;;;-1.90;90.70;;;;;;5115533;28;20031;-90
2022/12/26 09:59:10;;;;;;;9.23;6.20;;;-1.90;90.60;;;;;;5106257;28;20028;-88
2022/12/26 10:01:36;;;;;;;9.07;6.97;;;-2.00;90.60;;;;;;5075108;28;20032;-89
2022/12/26 10:04:29;;;;;;;7.03;6.22;;;-1.90;90.70;;;;;;5084473;28;20026;-89
2022/12/26 10:07:28;;;;;;;10.02;7.72;;;-1.80;90.70;;;;;;5078768;28;20042;-88
2022/12/26 10:10:23;;;;;;;10.10;6.68;;;-1.80;90.60;;;;;;5097259;28;20459;-90
2022/12/26 10:13:05;;;;;;;10.43;6.72;;;-1.80;90.40;;;;;;5033368;28;20050;-88
2022/12/26 10:15:48;;;;;;;7.80;6.30;;;-1.90;90.30;;;;;;5122341;28;20027;-88
2022/12/26 10:18:20;;;;;;;8.20;6.15;;;-1.90;90.50;;;;;;5102193;28;20020;-88
2022/12/26 10:20:56;;;;;;;9.00;6.63;;;-1.80;90.80;;;;;;5100649;28;20047;-87
2022/12/26 10:23:33;;;;;;;13.20;7.70;;;-1.60;90.80;;;;;;5079091;28;20036;-90
2022/12/26 10:26:08;;;;;;;8.52;7.05;;;-1.50;90.50;;;;;;5076128;28;20044;-89
2022/12/26 10:28:52;;;;;;;12.73;6.30;;;-1.60;89.90;;;;;;5098798;28;20109;-90
2022/12/26 10:31:43;;;;;;;8.93;6.28;;;-1.80;90.00;;;;;;5076443;28;20028;-87
2022/12/26 10:34:38;;;;;;;8.07;5.75;;;-1.70;90.30;;;;;;5096165;28;20117;-87
2022/12/26 10:37:12;;;;;;;9.93;6.68;;;-1.70;90.10;;;;;;5097356;28;20103;-91
2022/12/26 10:40:20;;;;;;;11.80;7.72;;;-1.70;90.30;;;;;;5077236;28;20020;-87
2022/12/26 10:42:52;;;;;;;9.85;8.10;;;-1.70;90.30;;;;;;5096567;28;20063;-86
2022/12/26 10:45:37;;;;;;;9.70;6.90;;;-1.60;90.30;;;;;;5094232;28;20047;-87
2022/12/26 10:48:03;;;;;;;14.25;7.25;;;-1.50;90.40;;;;;;5082967;28;20081;-88
2022/12/26 10:50:50;;;;;;;12.00;7.70;;;-1.40;90.40;;;;;;5093076;28;20099;-86
2022/12/26 10:53:19;;;;;;;11.10;7.47;;;-1.40;90.20;;;;;;5097595;28;20030;-91
2022/12/26 10:55:45;;;;;;;10.57;7.18;;;-1.40;90.10;;;;;;5104376;28;20023;-90
2022/12/26 10:58:19;;;;;;;9.68;8.43;;;-1.40;90.20;;;;;;5106584;28;20132;-89
2022/12/26 11:00:48;;;;;;;9.55;7.80;;;-1.40;90.20;;;;;;5102269;28;20380;-90
2022/12/26 11:03:33;;;;;;;10.25;7.45;;;-1.40;90.10;;;;;;5112016;28;20020;-90
2022/12/26 11:06:18;;;;;;;12.07;8.82;;;-1.40;90.10;;;;;;5078845;28;20047;-87
2022/12/26 11:09:06;;;;;;;12.13;9.63;;;-1.40;90.10;;;;;;5094268;28;20111;-86
2022/12/26 11:11:53;;;;;;;16.40;10.23;;;-1.40;89.80;;;;;;5090745;28;20039;-86
2022/12/26 11:14:40;;;;;;;11.77;9.10;;;-1.40;90.00;;;;;;5096043;28;20449;-88
2022/12/26 11:17:25;;;;;;;14.75;9.02;;;-1.50;90.00;;;;;;5094267;28;20035;-87
2022/12/26 11:20:11;;;;;;;14.95;8.82;;;-1.50;90.00;;;;;;5096894;28;20591;-86
2022/12/26 11:23:11;;;;;;;13.10;9.82;;;-1.70;89.80;;;;;;5102474;28;20088;-87
2022/12/26 11:25:48;;;;;;;13.27;10.02;;;-1.70;90.10;;;;;;5102409;28;20048;-92
2022/12/26 11:28:40;;;;;;;11.57;8.82;;;-1.70;90.20;;;;;;5121240;28;20049;-88
2022/12/26 11:31:18;;;;;;;14.45;10.32;;;-1.60;90.30;;;;;;5081186;28;20052;-90
2022/12/26 11:33:45;;;;;;;11.05;9.82;;;-1.60;90.20;;;;;;5100382;28;20101;-90
2022/12/26 11:36:14;;;;;;;14.27;8.65;;;-1.60;90.20;;;;;;5091201;28;20028;-88
2022/12/26 11:38:54;;;;;;;18.40;10.02;;;-1.60;90.30;;;;;;5094760;28;20480;-87
2022/12/26 11:41:42;;;;;;;12.38;9.52;;;-1.60;90.30;;;;;;5089060;28;20016;-91
2022/12/26 11:44:08;;;;;;;12.95;11.05;;;-1.60;90.20;;;;;;5115112;28;20095;-92
2022/12/26 11:46:55;;;;;;;10.73;9.35;;;-1.60;90.20;;;;;;5097223;28;20135;-87
2022/12/26 11:49:28;;;;;;;11.90;8.95;;;-1.60;90.20;;;;;;5091568;28;20053;-89
2022/12/26 11:51:59;;;;;;;13.55;9.50;;;-1.70;90.30;;;;;;5089849;28;20032;-87
2022/12/26 11:54:32;;;;;;;15.25;11.00;;;-1.80;90.30;;;;;;5084527;28;20024;-85
2022/12/26 11:57:09;;;;;;;11.05;9.55;;;-1.90;90.60;;;;;;5117847;28;20036;-89
2022/12/26 11:59:35;;;;;;;11.18;8.95;;;-2.00;90.80;;;;;;5110366;28;20020;-86
2022/12/26 12:02:31;;;;;;;15.65;10.13;;;-2.00;90.90;;;;;;5109196;28;20025;-86
2022/12/26 12:05:13;;;;;;;11.73;8.50;;;-2.00;90.90;;;;;;5084553;28;20031;-86
2022/12/26 12:07:58;;;;;;;13.25;10.18;;;-2.10;91.00;;;;;;5088504;28;20457;-85
2022/12/26 12:10:30;;;;;;;11.65;10.05;;;-2.10;91.20;;;;;;5096888;28;20115;-87
2022/12/26 12:13:14;;;;;;;11.05;7.43;;;-2.00;91.30;;;;;;5099235;28;20028;-85
2022/12/26 12:15:51;;;;;;;13.50;7.53;;;-2.00;91.30;;;;;;5099899;28;20376;-87
2022/12/26 12:18:36;;;;;;;9.73;6.80;;;-2.00;91.10;;;;;;5118873;28;20028;-87
2022/12/26 12:21:17;;;;;;;12.60;7.82;;;-2.00;91.00;;;;;;5089404;28;20024;-89
2022/12/26 12:24:17;;;;;;;8.95;7.50;;;-2.00;91.00;;;;;;5099504;28;20020;-91
2022/12/26 12:27:09;;;;;;;11.60;7.35;;;-2.10;90.90;;;;;;5096757;28;20345;-85
2022/12/26 12:29:49;;;;;;;11.75;7.35;;;-2.30;91.20;;;;;;5103101;28;20034;-88
2022/12/26 12:32:45;;;;;;;13.25;7.80;;;-2.40;91.50;;;;;;5109024;28;20012;-85
2022/12/26 12:35:14;;;;;;;10.38;9.35;;;-2.40;91.60;;;;;;5085981;28;20043;-84
2022/12/26 12:37:52;;;;;;;12.48;7.60;;;-2.40;91.60;;;;;;5078073;28;20020;-89
2022/12/26 12:40:18;;;;;;;10.63;7.20;;;-2.50;91.70;;;;;;5096938;28;20070;-89
2022/12/26 12:42:59;;;;;;;14.05;7.50;;;-2.50;91.90;;;;;;5078873;28;20016;-87
2022/12/26 12:45:40;;;;;;;10.68;8.18;;;-2.50;91.90;;;;;;5080739;28;20020;-87
2022/12/26 12:48:38;;;;;;;12.45;9.43;;;-2.50;92.00;;;;;;5096945;28;20082;-88
2022/12/26 12:51:26;;;;;;;14.68;7.47;;;-2.50;92.00;;;;;;5101233;28;20044;-89
2022/12/26 12:53:55;;;;;;;12.40;7.50;;;-2.60;92.10;;;;;;5104086;28;20019;-87
2022/12/26 12:56:40;;;;;;;11.30;6.43;;;-2.60;92.00;;;;;;5124987;28;20081;-88
2022/12/26 12:59:48;;;;;;;11.77;7.70;;;-2.70;92.10;;;;;;5101547;28;20031;-88
2022/12/26 13:02:39;;;;;;;8.02;5.82;;;-2.70;92.30;;;;;;5103442;28;20112;-88
2022/12/26 13:05:27;;;;;;;10.40;7.65;;;-2.70;92.30;;;;;;5079401;28;20028;-87
2022/12/26 13:08:06;;;;;;;11.23;6.75;;;-2.70;92.40;;;;;;5104259;28;20024;-88
2022/12/26 13:10:37;;;;;;;7.53;6.70;;;-2.60;92.60;;;;;;5105035;28;20059;-89
2022/12/26 13:13:29;;;;;;;10.55;6.72;;;-2.50;92.70;;;;;;5094751;28;20427;-88
2022/12/26 13:16:07;;;;;;;10.65;6.65;;;-2.50;92.50;;;;;;5099292;28;20016;-89
2022/12/26 13:18:39;;;;;;;10.07;6.68;;;-2.50;92.50;;;;;;5086061;28;20130;-91
2022/12/26 13:21:09;;;;;;;8.82;6.63;;;-2.50;92.50;;;;;;5107718;28;20027;-88
2022/12/26 13:27:03;;;;;;;11.02;6.47;;;-2.60;92.50;;;;;;5095732;28;20458;-88
2022/12/26 13:29:39;;;;;;;9.93;7.90;;;-2.70;92.30;;;;;;5078682;28;20031;-92
2022/12/26 13:32:25;;;;;;;7.03;6.32;;;-2.80;92.60;;;;;;5095589;28;20043;-86
2022/12/26 13:34:53;;;;;;;8.35;7.50;;;-2.80;92.70;;;;;;5102261;28;20020;-85
2022/12/26 13:37:37;;;;;;;11.43;6.80;;;-2.90;92.80;;;;;;5086826;28;20034;-87
2022/12/26 13:40:06;;;;;;;9.27;6.80;;;-2.90;93.00;;;;;;5079139;28;20024;-84
2022/12/26 13:45:56;;;;;;;12.10;6.30;;;-3.00;93.50;;;;;;5101103;28;20547;-85
2022/12/26 13:48:31;;;;;;;15.70;8.02;;;-3.00;93.60;;;;;;5083298;28;20047;-86
2022/12/26 13:51:26;;;;;;;12.48;7.95;;;-3.00;93.70;;;;;;5080554;28;20040;-86
2022/12/26 13:54:01;;;;;;;13.45;8.77;;;-3.00;93.80;;;;;;5082343;28;20509;-82
2022/12/26 13:56:27;;;;;;;6.20;5.63;;;-3.00;93.90;;;;;;5101842;28;20044;-83
2022/12/26 13:59:21;;;;;;;15.90;9.90;;;-2.90;93.90;;;;;;5083246;28;20413;-84
2022/12/26 14:02:06;;;;;;;11.95;6.47;;;-3.00;93.70;;;;;;5105835;28;20759;-86
2022/12/26 14:04:44;;;;;;;13.55;8.88;;;-3.10;93.90;;;;;;5084484;28;20107;-83
2022/12/26 14:07:45;;;;;;;8.95;7.22;;;-3.10;94.00;;;;;;5076997;28;20083;-85
2022/12/26 14:10:50;;;;;;;12.32;8.82;;;-3.10;94.00;;;;;;5107486;28;20089;-85
2022/12/26 14:13:32;;;;;;;11.13;6.53;;;-3.10;94.10;;;;;;5056799;28;20051;-85
2022/12/26 14:16:02;;;;;;;11.55;8.70;;;-3.20;94.00;;;;;;5076866;28;20603;-86
2022/12/26 14:18:33;;;;;;;15.25;9.18;;;-3.30;94.30;;;;;;5119998;28;20039;-85
2022/12/26 14:21:18;;;;;;;10.73;8.10;;;-3.20;94.50;;;;;;5093316;28;20031;-86
2022/12/26 14:24:08;;;;;;;18.52;7.28;;;-3.10;94.60;;;;;;5102516;28;20024;-87
2022/12/26 14:26:43;;;;;;;12.98;7.43;;;-3.10;94.40;;;;;;5030307;28;20055;-86
2022/12/26 14:29:28;;;;;;;8.93;6.75;;;-3.10;94.30;;;;;;5076467;28;20032;-86
2022/12/26 14:32:07;;;;;;;10.45;7.63;;;-3.10;94.30;;;;;;5097044;28;20031;-86
2022/12/26 14:34:45;;;;;;;10.52;8.10;;;-3.10;94.30;;;;;;5080682;28;20024;-87
2022/12/26 14:37:39;;;;;;;13.45;8.32;;;-3.20;94.30;;;;;;5098843;28;20035;-86
2022/12/26 14:40:33;;;;;;;9.57;7.57;;;-3.10;94.50;;;;;;5083623;28;20495;-86
2022/12/26 14:43:10;;;;;;;13.05;7.80;;;-3.10;94.30;;;;;;5081289;28;20024;-86
2022/12/26 14:45:59;;;;;;;12.88;7.68;;;-3.20;94.30;;;;;;5095003;28;20028;-86
2022/12/26 14:48:37;;;;;;;13.38;7.82;;;-3.20;94.40;;;;;;4999781;28;20503;-87
2022/12/26 14:51:20;;;;;;;10.98;7.45;;;-3.10;94.40;;;;;;5004606;28;20542;-88
2022/12/26 14:54:27;;;;;;;10.70;6.93;;;-3.20;94.40;;;;;;4996519;28;20098;-88
2022/12/26 14:56:53;;;;;;;;;;;-3.20;94.50;;;;;;4998301;28;20034;-90
2022/12/26 14:59:28;;;;;;;9.98;7.47;;;-3.10;94.50;;;;;;5002149;28;19905;-87
2022/12/26 15:02:34;;;;;;;10.65;9.13;;;-3.10;94.50;;;;;;4991530;28;20097;-85
2022/12/26 15:05:16;;;;;;;9.45;7.78;;;-3.10;94.40;;;;;;4991275;28;20046;-84
2022/12/26 15:08:26;;;;;;;10.65;7.93;;;-3.20;94.40;;;;;;4987390;28;20046;-83
2022/12/26 15:11:31;;;;;;;12.13;9.82;;;-3.30;94.50;;;;;;5000692;28;20146;-85
2022/12/26 15:14:30;;;;;;;12.35;7.72;;;-3.30;94.70;;;;;;4998462;28;20026;-92
2022/12/26 15:17:04;;;;;;;11.23;8.93;;;-3.30;95.00;;;;;;4997330;28;20527;-88
2022/12/26 15:20:00;;;;;;;10.65;8.02;;;-3.30;94.90;;;;;;4992237;28;20042;-87
2022/12/26 15:23:23;;;;;;;12.65;8.18;;;-3.20;95.10;;;;;;4996086;28;20040;-89
2022/12/26 15:26:12;;;;;;;12.07;8.48;;;-3.10;95.20;;;;;;4972469;28;20041;-88
2022/12/26 15:29:14;;;;;;;10.90;8.23;;;-3.00;95.10;;;;;;5011977;28;20049;-84
2022/12/26 15:31:55;;;;;;;11.48;8.32;;;-3.10;94.70;;;;;;5099345;28;20119;-89
2022/12/26 15:34:37;;;;;;;12.98;7.55;;;-3.20;94.60;;;;;;5080558;28;20491;-88
2022/12/26 15:37:13;;;;;;;10.63;8.05;;;-3.20;94.80;;;;;;5092260;28;20469;-86
2022/12/26 15:39:54;;;;;;;11.88;8.68;;;-3.10;95.00;;;;;;5087892;28;20160;-86
2022/12/26 15:42:32;;;;;;;13.30;9.45;;;-3.10;94.90;;;;;;5099037;28;20016;-86